Tipton, Oklahoma
Current Conditions -  °F | °C
As of 8:58 PM on Friday 21 Nov 2014 (Local Time) from KLTS Reporting Station
Clear Clear  
Wind Chill: 37°   Ceiling: Unl
Heat Index: 41°   Visibility: 10mi
Dew Point: 41°   Wind: 7mph
Humidity: 99%   Direction: 30°NNE
Pressure: 30.03"   Gusts: NA
Location:  34.5°N, 99.14°W
Report Text: KLTS 220258Z 03006KT 10SM CLR 05/05 A3003 RMK AO2A SLP174 T00520051 50004 $
Loading
Personal Weather Stations






























Interactive Weather Map New forecast layout! Learn more

10-Day Weather Forecast

Advertisements
Track Severe Weather on mobile